sensor_id;sensor_type;location;lat;lon;timestamp;temperature;humidity
70089;HTU21D;57460;47.134;19.888;2022-11-20T00:01:15;3.53;74.35
70089;HTU21D;57460;47.134;19.888;2022-11-20T00:03:41;3.47;73.71
70089;HTU21D;57460;47.134;19.888;2022-11-20T00:06:10;3.55;74.12
70089;HTU21D;57460;47.134;19.888;2022-11-20T00:08:36;3.50;74.06
70089;HTU21D;57460;47.134;19.888;2022-11-20T00:11:06;3.45;74.52
70089;HTU21D;57460;47.134;19.888;2022-11-20T00:13:32;3.53;74.28
70089;HTU21D;57460;47.134;19.888;2022-11-20T00:16:00;3.58;74.28
70089;HTU21D;57460;47.134;19.888;2022-11-20T00:18:27;3.52;74.10
70089;HTU21D;57460;47.134;19.888;2022-11-20T00:20:53;3.53;73.85
70089;HTU21D;57460;47.134;19.888;2022-11-20T00:23:19;3.62;73.98
70089;HTU21D;57460;47.134;19.888;2022-11-20T00:25:45;3.57;74.31
70089;HTU21D;57460;47.134;19.888;2022-11-20T00:28:11;3.58;73.74
70089;HTU21D;57460;47.134;19.888;2022-11-20T00:30:36;3.56;73.88
70089;HTU21D;57460;47.134;19.888;2022-11-20T00:33:02;3.61;74.18
70089;HTU21D;57460;47.134;19.888;2022-11-20T00:35:28;3.57;74.02
70089;HTU21D;57460;47.134;19.888;2022-11-20T00:37:55;3.59;73.90
70089;HTU21D;57460;47.134;19.888;2022-11-20T00:40:20;3.63;74.31
70089;HTU21D;57460;47.134;19.888;2022-11-20T00:42:46;3.65;74.22
70089;HTU21D;57460;47.134;19.888;2022-11-20T00:45:12;3.69;74.12
70089;HTU21D;57460;47.134;19.888;2022-11-20T00:47:40;3.70;73.96
70089;HTU21D;57460;47.134;19.888;2022-11-20T00:50:08;3.71;73.67
70089;HTU21D;57460;47.134;19.888;2022-11-20T00:52:34;3.72;73.61
70089;HTU21D;57460;47.134;19.888;2022-11-20T00:55:00;3.74;73.84
70089;HTU21D;57460;47.134;19.888;2022-11-20T00:57:25;3.71;73.57
70089;HTU21D;57460;47.134;19.888;2022-11-20T00:59:51;3.70;73.78
70089;HTU21D;57460;47.134;19.888;2022-11-20T01:02:19;3.73;73.67
70089;HTU21D;57460;47.134;19.888;2022-11-20T01:04:47;3.76;73.66
70089;HTU21D;57460;47.134;19.888;2022-11-20T01:07:12;3.78;74.13
70089;HTU21D;57460;47.134;19.888;2022-11-20T01:09:38;3.76;73.81
70089;HTU21D;57460;47.134;19.888;2022-11-20T01:12:04;3.76;73.83
70089;HTU21D;57460;47.134;19.888;2022-11-20T01:14:30;3.71;73.16
70089;HTU21D;57460;47.134;19.888;2022-11-20T01:16:55;3.68;73.73
70089;HTU21D;57460;47.134;19.888;2022-11-20T01:19:23;3.65;73.53
70089;HTU21D;57460;47.134;19.888;2022-11-20T01:21:51;3.71;73.47
70089;HTU21D;57460;47.134;19.888;2022-11-20T01:24:19;3.70;73.64
70089;HTU21D;57460;47.134;19.888;2022-11-20T01:26:49;3.75;72.64
70089;HTU21D;57460;47.134;19.888;2022-11-20T01:29:21;3.71;73.08
70089;HTU21D;57460;47.134;19.888;2022-11-20T01:31:49;3.59;72.82
70089;HTU21D;57460;47.134;19.888;2022-11-20T01:34:17;3.68;73.65
70089;HTU21D;57460;47.134;19.888;2022-11-20T01:36:45;3.61;73.41
70089;HTU21D;57460;47.134;19.888;2022-11-20T01:39:14;3.69;72.89
70089;HTU21D;57460;47.134;19.888;2022-11-20T01:41:41;3.68;72.60
70089;HTU21D;57460;47.134;19.888;2022-11-20T01:47:28;3.61;73.55
70089;HTU21D;57460;47.134;19.888;2022-11-20T01:50:03;3.61;72.22
70089;HTU21D;57460;47.134;19.888;2022-11-20T01:52:36;3.57;72.88
70089;HTU21D;57460;47.134;19.888;2022-11-20T01:55:11;3.50;73.48
70089;HTU21D;57460;47.134;19.888;2022-11-20T01:57:40;3.50;73.16
70089;HTU21D;57460;47.134;19.888;2022-11-20T02:00:10;3.54;73.40
70089;HTU21D;57460;47.134;19.888;2022-11-20T02:02:39;3.52;73.44
70089;HTU21D;57460;47.134;19.888;2022-11-20T02:05:40;3.82;72.68
70089;HTU21D;57460;47.134;19.888;2022-11-20T02:08:09;3.87;71.87
70089;HTU21D;57460;47.134;19.888;2022-11-20T02:10:35;3.72;72.47
70089;HTU21D;57460;47.134;19.888;2022-11-20T02:13:01;3.71;72.64
70089;HTU21D;57460;47.134;19.888;2022-11-20T02:15:46;3.78;72.22
70089;HTU21D;57460;47.134;19.888;2022-11-20T02:18:17;3.87;72.80
70089;HTU21D;57460;47.134;19.888;2022-11-20T02:20:46;3.87;72.39
70089;HTU21D;57460;47.134;19.888;2022-11-20T02:25:47;4.00;72.38
70089;HTU21D;57460;47.134;19.888;2022-11-20T02:28:13;3.90;72.43
70089;HTU21D;57460;47.134;19.888;2022-11-20T02:30:39;3.97;71.03
70089;HTU21D;57460;47.134;19.888;2022-11-20T02:33:04;3.93;71.29
70089;HTU21D;57460;47.134;19.888;2022-11-20T02:38:02;3.92;71.75
70089;HTU21D;57460;47.134;19.888;2022-11-20T02:40:28;3.89;71.94
70089;HTU21D;57460;47.134;19.888;2022-11-20T02:42:55;4.00;71.26
70089;HTU21D;57460;47.134;19.888;2022-11-20T02:45:22;3.86;72.02
70089;HTU21D;57460;47.134;19.888;2022-11-20T02:47:49;3.89;71.78
70089;HTU21D;57460;47.134;19.888;2022-11-20T02:50:15;3.89;72.28
70089;HTU21D;57460;47.134;19.888;2022-11-20T02:52:41;3.94;71.81
70089;HTU21D;57460;47.134;19.888;2022-11-20T02:55:07;4.00;71.48
70089;HTU21D;57460;47.134;19.888;2022-11-20T02:57:33;4.04;71.55
70089;HTU21D;57460;47.134;19.888;2022-11-20T02:59:58;3.87;72.25
70089;HTU21D;57460;47.134;19.888;2022-11-20T03:02:31;3.89;71.94
70089;HTU21D;57460;47.134;19.888;2022-11-20T03:04:57;4.06;71.31
70089;HTU21D;57460;47.134;19.888;2022-11-20T03:07:23;4.06;71.04
70089;HTU21D;57460;47.134;19.888;2022-11-20T03:09:48;3.88;72.10
70089;HTU21D;57460;47.134;19.888;2022-11-20T03:12:14;3.88;72.36
70089;HTU21D;57460;47.134;19.888;2022-11-20T03:14:40;3.82;72.76
70089;HTU21D;57460;47.134;19.888;2022-11-20T03:17:07;3.94;72.42
70089;HTU21D;57460;47.134;19.888;2022-11-20T03:19:33;4.01;71.93
70089;HTU21D;57460;47.134;19.888;2022-11-20T03:21:59;3.88;72.51
70089;HTU21D;57460;47.134;19.888;2022-11-20T03:24:25;3.93;72.38
70089;HTU21D;57460;47.134;19.888;2022-11-20T03:26:53;4.15;71.73
70089;HTU21D;57460;47.134;19.888;2022-11-20T03:29:19;3.98;72.35
70089;HTU21D;57460;47.134;19.888;2022-11-20T03:31:45;3.87;72.84
70089;HTU21D;57460;47.134;19.888;2022-11-20T03:34:11;3.99;72.23
70089;HTU21D;57460;47.134;19.888;2022-11-20T03:36:41;4.00;72.14
70089;HTU21D;57460;47.134;19.888;2022-11-20T03:39:12;3.92;72.58
70089;HTU21D;57460;47.134;19.888;2022-11-20T03:41:40;4.07;72.15
70089;HTU21D;57460;47.134;19.888;2022-11-20T03:44:08;4.12;71.87
70089;HTU21D;57460;47.134;19.888;2022-11-20T03:46:34;4.07;72.02
70089;HTU21D;57460;47.134;19.888;2022-11-20T03:49:00;4.08;71.86
70089;HTU21D;57460;47.134;19.888;2022-11-20T03:51:32;4.08;71.75
70089;HTU21D;57460;47.134;19.888;2022-11-20T03:54:00;3.88;72.45
70089;HTU21D;57460;47.134;19.888;2022-11-20T03:56:29;3.93;72.72
70089;HTU21D;57460;47.134;19.888;2022-11-20T03:58:55;3.73;73.76
70089;HTU21D;57460;47.134;19.888;2022-11-20T04:01:27;3.79;73.74
70089;HTU21D;57460;47.134;19.888;2022-11-20T04:03:55;3.76;73.96
70089;HTU21D;57460;47.134;19.888;2022-11-20T04:06:23;3.87;73.68
70089;HTU21D;57460;47.134;19.888;2022-11-20T04:08:50;3.91;73.53
70089;HTU21D;57460;47.134;19.888;2022-11-20T04:11:19;3.95;73.13
70089;HTU21D;57460;47.134;19.888;2022-11-20T04:13:48;4.02;73.21
70089;HTU21D;57460;47.134;19.888;2022-11-20T04:16:15;4.03;73.14
70089;HTU21D;57460;47.134;19.888;2022-11-20T04:18:45;4.04;72.93
70089;HTU21D;57460;47.134;19.888;2022-11-20T04:21:13;4.15;72.88
70089;HTU21D;57460;47.134;19.888;2022-11-20T04:23:39;4.03;73.25
70089;HTU21D;57460;47.134;19.888;2022-11-20T04:26:07;4.13;72.96
70089;HTU21D;57460;47.134;19.888;2022-11-20T04:28:34;4.16;73.25
70089;HTU21D;57460;47.134;19.888;2022-11-20T04:31:15;4.09;72.96
70089;HTU21D;57460;47.134;19.888;2022-11-20T04:33:41;4.03;73.35
70089;HTU21D;57460;47.134;19.888;2022-11-20T04:36:12;3.90;74.08
70089;HTU21D;57460;47.134;19.888;2022-11-20T04:38:39;4.01;73.71
70089;HTU21D;57460;47.134;19.888;2022-11-20T04:41:10;4.09;73.32
70089;HTU21D;57460;47.134;19.888;2022-11-20T04:43:37;4.21;72.86
70089;HTU21D;57460;47.134;19.888;2022-11-20T04:46:03;4.23;72.87
70089;HTU21D;57460;47.134;19.888;2022-11-20T04:48:30;4.20;73.06
70089;HTU21D;57460;47.134;19.888;2022-11-20T04:50:56;4.09;73.64
70089;HTU21D;57460;47.134;19.888;2022-11-20T04:53:23;4.03;73.95
70089;HTU21D;57460;47.134;19.888;2022-11-20T04:55:49;4.13;73.69
70089;HTU21D;57460;47.134;19.888;2022-11-20T04:58:16;4.27;73.07
70089;HTU21D;57460;47.134;19.888;2022-11-20T05:00:44;4.30;72.91
70089;HTU21D;57460;47.134;19.888;2022-11-20T05:03:12;4.28;72.75
70089;HTU21D;57460;47.134;19.888;2022-11-20T05:05:47;4.28;72.99
70089;HTU21D;57460;47.134;19.888;2022-11-20T05:08:15;4.15;73.65
70089;HTU21D;57460;47.134;19.888;2022-11-20T05:10:40;4.26;73.35
70089;HTU21D;57460;47.134;19.888;2022-11-20T05:13:06;4.30;73.07
70089;HTU21D;57460;47.134;19.888;2022-11-20T05:15:32;4.31;73.03
70089;HTU21D;57460;47.134;19.888;2022-11-20T05:18:00;4.28;73.38
70089;HTU21D;57460;47.134;19.888;2022-11-20T05:20:26;4.37;73.04
70089;HTU21D;57460;47.134;19.888;2022-11-20T05:22:57;4.16;73.86
70089;HTU21D;57460;47.134;19.888;2022-11-20T05:25:23;4.15;73.90
70089;HTU21D;57460;47.134;19.888;2022-11-20T05:27:49;4.06;74.37
70089;HTU21D;57460;47.134;19.888;2022-11-20T05:30:14;4.05;74.51
70089;HTU21D;57460;47.134;19.888;2022-11-20T05:32:40;4.05;74.78
70089;HTU21D;57460;47.134;19.888;2022-11-20T05:35:06;4.06;74.78
70089;HTU21D;57460;47.134;19.888;2022-11-20T05:37:32;4.02;74.71
70089;HTU21D;57460;47.134;19.888;2022-11-20T05:39:58;3.98;74.73
70089;HTU21D;57460;47.134;19.888;2022-11-20T05:42:24;3.98;74.95
70089;HTU21D;57460;47.134;19.888;2022-11-20T05:44:56;3.98;75.04
70089;HTU21D;57460;47.134;19.888;2022-11-20T05:47:22;4.02;74.80
70089;HTU21D;57460;47.134;19.888;2022-11-20T05:49:48;4.02;75.09
70089;HTU21D;57460;47.134;19.888;2022-11-20T05:52:13;4.23;74.51
70089;HTU21D;57460;47.134;19.888;2022-11-20T05:54:39;4.39;73.83
70089;HTU21D;57460;47.134;19.888;2022-11-20T05:57:05;4.51;73.13
70089;HTU21D;57460;47.134;19.888;2022-11-20T05:59:31;4.44;73.35
70089;HTU21D;57460;47.134;19.888;2022-11-20T06:01:56;4.50;73.06
70089;HTU21D;57460;47.134;19.888;2022-11-20T06:04:22;4.54;72.84
70089;HTU21D;57460;47.134;19.888;2022-11-20T06:06:48;4.54;72.96
70089;HTU21D;57460;47.134;19.888;2022-11-20T06:09:13;4.53;72.97
70089;HTU21D;57460;47.134;19.888;2022-11-20T06:11:39;4.51;73.19
70089;HTU21D;57460;47.134;19.888;2022-11-20T06:14:05;4.46;73.54
70089;HTU21D;57460;47.134;19.888;2022-11-20T06:16:31;4.43;73.75
70089;HTU21D;57460;47.134;19.888;2022-11-20T06:18:57;4.56;73.32
70089;HTU21D;57460;47.134;19.888;2022-11-20T06:21:23;4.50;73.64
70089;HTU21D;57460;47.134;19.888;2022-11-20T06:23:51;4.41;74.18
70089;HTU21D;57460;47.134;19.888;2022-11-20T06:26:20;4.56;73.53
70089;HTU21D;57460;47.134;19.888;2022-11-20T06:28:46;4.53;73.46
70089;HTU21D;57460;47.134;19.888;2022-11-20T06:31:14;4.71;72.94
70089;HTU21D;57460;47.134;19.888;2022-11-20T06:33:41;4.51;73.66
70089;HTU21D;57460;47.134;19.888;2022-11-20T06:36:07;4.60;73.51
70089;HTU21D;57460;47.134;19.888;2022-11-20T06:38:34;4.54;73.57
70089;HTU21D;57460;47.134;19.888;2022-11-20T06:41:00;4.46;74.10
70089;HTU21D;57460;47.134;19.888;2022-11-20T06:43:25;4.48;74.41
70089;HTU21D;57460;47.134;19.888;2022-11-20T06:45:52;4.52;74.31
70089;HTU21D;57460;47.134;19.888;2022-11-20T06:48:19;4.67;73.73
70089;HTU21D;57460;47.134;19.888;2022-11-20T06:50:44;4.58;73.82
70089;HTU21D;57460;47.134;19.888;2022-11-20T06:53:10;4.72;73.51
70089;HTU21D;57460;47.134;19.888;2022-11-20T06:55:36;4.57;74.03
70089;HTU21D;57460;47.134;19.888;2022-11-20T06:58:02;4.53;74.40
70089;HTU21D;57460;47.134;19.888;2022-11-20T07:00:27;4.69;73.80
70089;HTU21D;57460;47.134;19.888;2022-11-20T07:02:53;4.64;74.23
70089;HTU21D;57460;47.134;19.888;2022-11-20T07:05:19;4.60;74.33
70089;HTU21D;57460;47.134;19.888;2022-11-20T07:07:45;4.72;73.93
70089;HTU21D;57460;47.134;19.888;2022-11-20T07:10:10;4.57;74.78
70089;HTU21D;57460;47.134;19.888;2022-11-20T07:12:36;4.50;75.47
70089;HTU21D;57460;47.134;19.888;2022-11-20T07:15:02;4.67;74.99
70089;HTU21D;57460;47.134;19.888;2022-11-20T07:17:28;4.59;75.62
70089;HTU21D;57460;47.134;19.888;2022-11-20T07:19:54;4.66;75.54
70089;HTU21D;57460;47.134;19.888;2022-11-20T07:22:19;4.66;76.12
70089;HTU21D;57460;47.134;19.888;2022-11-20T07:24:47;4.82;75.70
70089;HTU21D;57460;47.134;19.888;2022-11-20T07:27:13;4.95;75.15
70089;HTU21D;57460;47.134;19.888;2022-11-20T07:29:39;5.05;74.62
70089;HTU21D;57460;47.134;19.888;2022-11-20T07:32:05;5.12;74.01
70089;HTU21D;57460;47.134;19.888;2022-11-20T07:34:30;5.03;74.09
70089;HTU21D;57460;47.134;19.888;2022-11-20T07:36:56;5.01;74.31
70089;HTU21D;57460;47.134;19.888;2022-11-20T07:39:22;5.01;74.48
70089;HTU21D;57460;47.134;19.888;2022-11-20T07:41:48;5.12;74.25
70089;HTU21D;57460;47.134;19.888;2022-11-20T07:44:13;5.15;73.68
70089;HTU21D;57460;47.134;19.888;2022-11-20T07:46:39;5.21;73.10
70089;HTU21D;57460;47.134;19.888;2022-11-20T07:49:05;5.12;73.19
70089;HTU21D;57460;47.134;19.888;2022-11-20T07:51:30;5.02;74.14
70089;HTU21D;57460;47.134;19.888;2022-11-20T07:53:56;5.27;73.69
70089;HTU21D;57460;47.134;19.888;2022-11-20T07:56:22;5.38;73.11
70089;HTU21D;57460;47.134;19.888;2022-11-20T07:58:47;5.18;73.77
70089;HTU21D;57460;47.134;19.888;2022-11-20T08:01:13;5.21;73.52
70089;HTU21D;57460;47.134;19.888;2022-11-20T08:03:39;5.28;73.46
70089;HTU21D;57460;47.134;19.888;2022-11-20T08:06:05;5.43;72.59
70089;HTU21D;57460;47.134;19.888;2022-11-20T08:08:30;5.27;72.93
70089;HTU21D;57460;47.134;19.888;2022-11-20T08:10:57;5.21;73.51
70089;HTU21D;57460;47.134;19.888;2022-11-20T08:13:43;5.19;73.86
70089;HTU21D;57460;47.134;19.888;2022-11-20T08:16:28;5.21;74.13
70089;HTU21D;57460;47.134;19.888;2022-11-20T08:18:54;5.19;74.26
70089;HTU21D;57460;47.134;19.888;2022-11-20T08:21:20;5.35;74.07
70089;HTU21D;57460;47.134;19.888;2022-11-20T08:23:45;5.49;73.41
70089;HTU21D;57460;47.134;19.888;2022-11-20T08:26:11;5.43;73.70
70089;HTU21D;57460;47.134;19.888;2022-11-20T08:28:37;5.42;73.77
70089;HTU21D;57460;47.134;19.888;2022-11-20T08:31:03;5.48;74.10
70089;HTU21D;57460;47.134;19.888;2022-11-20T08:33:36;5.66;73.67
70089;HTU21D;57460;47.134;19.888;2022-11-20T08:36:03;5.77;73.48
70089;HTU21D;57460;47.134;19.888;2022-11-20T08:38:30;5.95;72.24
70089;HTU21D;57460;47.134;19.888;2022-11-20T08:40:57;5.87;72.40
70089;HTU21D;57460;47.134;19.888;2022-11-20T08:43:41;5.84;72.94
70089;HTU21D;57460;47.134;19.888;2022-11-20T08:46:07;5.97;72.56
70089;HTU21D;57460;47.134;19.888;2022-11-20T08:48:35;6.07;72.19
70089;HTU21D;57460;47.134;19.888;2022-11-20T08:51:04;6.06;72.07
70089;HTU21D;57460;47.134;19.888;2022-11-20T08:53:29;6.07;72.23
70089;HTU21D;57460;47.134;19.888;2022-11-20T08:55:56;6.09;72.09
70089;HTU21D;57460;47.134;19.888;2022-11-20T08:58:22;6.07;72.72
70089;HTU21D;57460;47.134;19.888;2022-11-20T09:00:48;6.02;73.73
70089;HTU21D;57460;47.134;19.888;2022-11-20T09:03:14;6.41;71.92
70089;HTU21D;57460;47.134;19.888;2022-11-20T09:05:40;6.53;71.27
70089;HTU21D;57460;47.134;19.888;2022-11-20T09:08:06;6.66;70.86
70089;HTU21D;57460;47.134;19.888;2022-11-20T09:10:31;6.84;70.13
70089;HTU21D;57460;47.134;19.888;2022-11-20T09:12:57;6.93;69.51
70089;HTU21D;57460;47.134;19.888;2022-11-20T09:15:24;6.85;69.61
70089;HTU21D;57460;47.134;19.888;2022-11-20T09:17:52;7.18;69.51
70089;HTU21D;57460;47.134;19.888;2022-11-20T09:20:17;7.59;67.78
70089;HTU21D;57460;47.134;19.888;2022-11-20T09:22:44;7.54;68.13
70089;HTU21D;57460;47.134;19.888;2022-11-20T09:25:10;7.58;68.12
70089;HTU21D;57460;47.134;19.888;2022-11-20T09:27:35;7.63;67.00
70089;HTU21D;57460;47.134;19.888;2022-11-20T09:30:02;8.01;66.34
70089;HTU21D;57460;47.134;19.888;2022-11-20T09:32:27;8.09;65.91
70089;HTU21D;57460;47.134;19.888;2022-11-20T09:34:53;7.98;67.18
70089;HTU21D;57460;47.134;19.888;2022-11-20T09:37:19;8.28;66.11
70089;HTU21D;57460;47.134;19.888;2022-11-20T09:39:44;8.32;66.07
70089;HTU21D;57460;47.134;19.888;2022-11-20T09:45:30;8.28;65.90
70089;HTU21D;57460;47.134;19.888;2022-11-20T09:54:08;7.79;68.44
70089;HTU21D;57460;47.134;19.888;2022-11-20T09:56:42;7.97;68.03
70089;HTU21D;57460;47.134;19.888;2022-11-20T10:02:00;8.06;67.81
70089;HTU21D;57460;47.134;19.888;2022-11-20T10:04:31;8.09;67.26
70089;HTU21D;57460;47.134;19.888;2022-11-20T10:07:27;8.23;67.12
70089;HTU21D;57460;47.134;19.888;2022-11-20T10:09:56;8.24;65.90
70089;HTU21D;57460;47.134;19.888;2022-11-20T10:29:11;8.11;67.52
70089;HTU21D;57460;47.134;19.888;2022-11-20T10:31:40;8.27;66.57
70089;HTU21D;57460;47.134;19.888;2022-11-20T10:34:21;8.14;67.21
70089;HTU21D;57460;47.134;19.888;2022-11-20T10:37:01;8.16;67.33
70089;HTU21D;57460;47.134;19.888;2022-11-20T10:42:46;8.41;66.74
70089;HTU21D;57460;47.134;19.888;2022-11-20T10:45:35;8.29;66.07
70089;HTU21D;57460;47.134;19.888;2022-11-20T10:48:20;8.27;67.21
70089;HTU21D;57460;47.134;19.888;2022-11-20T10:53:54;8.31;67.68
70089;HTU21D;57460;47.134;19.888;2022-11-20T11:01:40;8.68;65.99
70089;HTU21D;57460;47.134;19.888;2022-11-20T11:06:48;8.62;66.49
70089;HTU21D;57460;47.134;19.888;2022-11-20T11:09:25;8.61;66.19
70089;HTU21D;57460;47.134;19.888;2022-11-20T11:11:55;8.59;66.33
70089;HTU21D;57460;47.134;19.888;2022-11-20T11:14:21;8.76;65.17
70089;HTU21D;57460;47.134;19.888;2022-11-20T11:16:51;8.67;65.32
70089;HTU21D;57460;47.134;19.888;2022-11-20T11:19:17;8.73;64.85
70089;HTU21D;57460;47.134;19.888;2022-11-20T11:21:54;8.81;62.44
70089;HTU21D;57460;47.134;19.888;2022-11-20T11:24:29;8.74;63.56
70089;HTU21D;57460;47.134;19.888;2022-11-20T11:27:04;8.92;66.36
70089;HTU21D;57460;47.134;19.888;2022-11-20T11:29:36;9.07;64.64
70089;HTU21D;57460;47.134;19.888;2022-11-20T11:32:21;9.08;65.10
70089;HTU21D;57460;47.134;19.888;2022-11-20T11:35:04;9.21;65.84
70089;HTU21D;57460;47.134;19.888;2022-11-20T11:37:36;9.23;64.92
70089;HTU21D;57460;47.134;19.888;2022-11-20T11:40:08;9.27;65.67
70089;HTU21D;57460;47.134;19.888;2022-11-20T11:42:42;9.31;65.50
70089;HTU21D;57460;47.134;19.888;2022-11-20T11:45:14;9.36;64.46
70089;HTU21D;57460;47.134;19.888;2022-11-20T11:50:20;9.41;61.76
70089;HTU21D;57460;47.134;19.888;2022-11-20T11:53:04;9.34;64.34
70089;HTU21D;57460;47.134;19.888;2022-11-20T11:55:34;9.32;63.74
70089;HTU21D;57460;47.134;19.888;2022-11-20T11:58:09;9.30;65.08
70089;HTU21D;57460;47.134;19.888;2022-11-20T12:00:41;9.42;66.65
70089;HTU21D;57460;47.134;19.888;2022-11-20T12:03:33;9.49;64.68
70089;HTU21D;57460;47.134;19.888;2022-11-20T12:06:10;9.50;65.10
70089;HTU21D;57460;47.134;19.888;2022-11-20T12:08:44;9.50;64.21
70089;HTU21D;57460;47.134;19.888;2022-11-20T12:11:33;9.49;62.08
70089;HTU21D;57460;47.134;19.888;2022-11-20T12:14:17;9.39;64.39
70089;HTU21D;57460;47.134;19.888;2022-11-20T12:16:50;9.42;65.52
70089;HTU21D;57460;47.134;19.888;2022-11-20T12:19:18;9.51;62.99
70089;HTU21D;57460;47.134;19.888;2022-11-20T12:24:57;9.67;65.13
70089;HTU21D;57460;47.134;19.888;2022-11-20T12:27:44;9.53;64.11
70089;HTU21D;57460;47.134;19.888;2022-11-20T12:30:22;9.70;65.54
70089;HTU21D;57460;47.134;19.888;2022-11-20T12:36:27;9.79;64.32
70089;HTU21D;57460;47.134;19.888;2022-11-20T12:39:12;9.67;64.65
70089;HTU21D;57460;47.134;19.888;2022-11-20T12:54:15;9.57;63.72
70089;HTU21D;57460;47.134;19.888;2022-11-20T12:57:19;9.57;64.18
70089;HTU21D;57460;47.134;19.888;2022-11-20T13:00:21;9.45;63.44
70089;HTU21D;57460;47.134;19.888;2022-11-20T13:08:36;9.74;64.46
70089;HTU21D;57460;47.134;19.888;2022-11-20T13:16:52;9.71;65.17
70089;HTU21D;57460;47.134;19.888;2022-11-20T13:19:22;9.68;65.62
70089;HTU21D;57460;47.134;19.888;2022-11-20T13:21:49;9.82;65.03
70089;HTU21D;57460;47.134;19.888;2022-11-20T13:26:47;9.71;64.35
70089;HTU21D;57460;47.134;19.888;2022-11-20T13:29:18;9.78;64.59
70089;HTU21D;57460;47.134;19.888;2022-11-20T13:31:46;9.56;65.21
70089;HTU21D;57460;47.134;19.888;2022-11-20T13:34:24;9.54;65.31
70089;HTU21D;57460;47.134;19.888;2022-11-20T13:36:56;9.77;64.78
70089;HTU21D;57460;47.134;19.888;2022-11-20T13:39:29;9.79;64.61
70089;HTU21D;57460;47.134;19.888;2022-11-20T13:42:02;9.69;64.63
70089;HTU21D;57460;47.134;19.888;2022-11-20T13:44:39;9.76;65.01
70089;HTU21D;57460;47.134;19.888;2022-11-20T13:47:21;9.82;64.63
70089;HTU21D;57460;47.134;19.888;2022-11-20T13:49:48;9.78;64.24
70089;HTU21D;57460;47.134;19.888;2022-11-20T13:55:16;9.47;64.47
70089;HTU21D;57460;47.134;19.888;2022-11-20T14:00:24;9.61;64.91
70089;HTU21D;57460;47.134;19.888;2022-11-20T14:05:45;9.65;64.79
70089;HTU21D;57460;47.134;19.888;2022-11-20T14:08:25;9.65;64.27
70089;HTU21D;57460;47.134;19.888;2022-11-20T14:11:05;9.45;64.90
70089;HTU21D;57460;47.134;19.888;2022-11-20T14:13:31;9.44;64.87
70089;HTU21D;57460;47.134;19.888;2022-11-20T14:15:58;9.29;65.35
70089;HTU21D;57460;47.134;19.888;2022-11-20T14:18:26;9.17;65.50
70089;HTU21D;57460;47.134;19.888;2022-11-20T14:20:52;9.12;65.85
70089;HTU21D;57460;47.134;19.888;2022-11-20T14:23:28;9.14;65.88
70089;HTU21D;57460;47.134;19.888;2022-11-20T14:25:55;9.05;66.34
70089;HTU21D;57460;47.134;19.888;2022-11-20T14:28:27;9.06;66.30
70089;HTU21D;57460;47.134;19.888;2022-11-20T14:30:56;9.01;66.81
70089;HTU21D;57460;47.134;19.888;2022-11-20T14:33:25;8.97;66.78
70089;HTU21D;57460;47.134;19.888;2022-11-20T14:35:54;9.01;67.01
70089;HTU21D;57460;47.134;19.888;2022-11-20T14:38:32;8.87;67.24
70089;HTU21D;57460;47.134;19.888;2022-11-20T14:41:09;8.81;67.27
70089;HTU21D;57460;47.134;19.888;2022-11-20T14:43:55;8.73;67.36
70089;HTU21D;57460;47.134;19.888;2022-11-20T14:46:23;8.77;67.81
70089;HTU21D;57460;47.134;19.888;2022-11-20T14:48:56;8.79;67.40
70089;HTU21D;57460;47.134;19.888;2022-11-20T14:54:14;8.78;67.58
70089;HTU21D;57460;47.134;19.888;2022-11-20T14:56:40;8.78;67.84
70089;HTU21D;57460;47.134;19.888;2022-11-20T14:59:08;8.90;67.81
70089;HTU21D;57460;47.134;19.888;2022-11-20T15:01:34;8.80;66.96
70089;HTU21D;57460;47.134;19.888;2022-11-20T15:06:28;8.71;68.12
70089;HTU21D;57460;47.134;19.888;2022-11-20T15:08:53;8.72;67.97
70089;HTU21D;57460;47.134;19.888;2022-11-20T15:11:30;8.70;67.36
70089;HTU21D;57460;47.134;19.888;2022-11-20T15:13:57;8.70;67.75
70089;HTU21D;57460;47.134;19.888;2022-11-20T15:16:24;8.68;67.68
70089;HTU21D;57460;47.134;19.888;2022-11-20T15:18:51;8.64;67.56
70089;HTU21D;57460;47.134;19.888;2022-11-20T15:21:19;8.65;68.14
70089;HTU21D;57460;47.134;19.888;2022-11-20T15:23:46;8.67;68.26
70089;HTU21D;57460;47.134;19.888;2022-11-20T15:26:17;8.60;67.46
70089;HTU21D;57460;47.134;19.888;2022-11-20T15:28:46;8.60;68.16
70089;HTU21D;57460;47.134;19.888;2022-11-20T15:31:17;8.59;68.09
70089;HTU21D;57460;47.134;19.888;2022-11-20T15:33:42;8.59;68.71
70089;HTU21D;57460;47.134;19.888;2022-11-20T15:36:11;8.61;68.66
70089;HTU21D;57460;47.134;19.888;2022-11-20T15:38:37;8.65;68.70
70089;HTU21D;57460;47.134;19.888;2022-11-20T15:41:04;8.66;68.57
70089;HTU21D;57460;47.134;19.888;2022-11-20T15:43:33;8.61;68.58
70089;HTU21D;57460;47.134;19.888;2022-11-20T15:46:06;8.59;68.58
70089;HTU21D;57460;47.134;19.888;2022-11-20T15:48:45;8.55;68.63
70089;HTU21D;57460;47.134;19.888;2022-11-20T15:51:31;8.52;68.55
70089;HTU21D;57460;47.134;19.888;2022-11-20T15:53:58;8.47;68.39
70089;HTU21D;57460;47.134;19.888;2022-11-20T15:56:25;8.48;68.46
70089;HTU21D;57460;47.134;19.888;2022-11-20T15:58:51;8.48;68.30
70089;HTU21D;57460;47.134;19.888;2022-11-20T16:01:19;8.45;68.32
70089;HTU21D;57460;47.134;19.888;2022-11-20T16:03:48;8.41;68.26
70089;HTU21D;57460;47.134;19.888;2022-11-20T16:06:14;8.29;68.66
70089;HTU21D;57460;47.134;19.888;2022-11-20T16:08:41;8.29;68.91
70089;HTU21D;57460;47.134;19.888;2022-11-20T16:11:16;8.30;68.97
70089;HTU21D;57460;47.134;19.888;2022-11-20T16:13:52;8.28;69.02
70089;HTU21D;57460;47.134;19.888;2022-11-20T16:16:37;8.31;68.97
70089;HTU21D;57460;47.134;19.888;2022-11-20T16:19:09;8.32;68.87
70089;HTU21D;57460;47.134;19.888;2022-11-20T16:21:38;8.30;68.84
70089;HTU21D;57460;47.134;19.888;2022-11-20T16:24:10;8.22;69.10
70089;HTU21D;57460;47.134;19.888;2022-11-20T16:26:41;8.12;69.50
70089;HTU21D;57460;47.134;19.888;2022-11-20T16:29:07;8.09;69.69
70089;HTU21D;57460;47.134;19.888;2022-11-20T16:31:33;8.08;69.68
70089;HTU21D;57460;47.134;19.888;2022-11-20T16:34:04;8.11;69.72
70089;HTU21D;57460;47.134;19.888;2022-11-20T16:36:30;8.18;69.44
70089;HTU21D;57460;47.134;19.888;2022-11-20T16:39:02;8.17;69.45
70089;HTU21D;57460;47.134;19.888;2022-11-20T16:41:31;8.17;69.36
70089;HTU21D;57460;47.134;19.888;2022-11-20T16:44:01;8.15;69.36
70089;HTU21D;57460;47.134;19.888;2022-11-20T16:46:29;8.14;69.41
70089;HTU21D;57460;47.134;19.888;2022-11-20T16:49:04;8.16;69.07
70089;HTU21D;57460;47.134;19.888;2022-11-20T16:51:36;8.14;69.15
70089;HTU21D;57460;47.134;19.888;2022-11-20T16:54:06;8.12;69.10
70089;HTU21D;57460;47.134;19.888;2022-11-20T16:56:42;8.06;69.32
70089;HTU21D;57460;47.134;19.888;2022-11-20T16:59:08;7.99;69.84
70089;HTU21D;57460;47.134;19.888;2022-11-20T17:01:36;8.06;69.55
70089;HTU21D;57460;47.134;19.888;2022-11-20T17:04:05;7.87;70.48
70089;HTU21D;57460;47.134;19.888;2022-11-20T17:06:34;7.89;70.52
70089;HTU21D;57460;47.134;19.888;2022-11-20T17:09:00;7.76;71.46